sensor_id;sensor_type;location;lat;lon;timestamp;P1;durP1;ratioP1;P2;durP2;ratioP2
8861;SDS011;4799;50.996;4.754;2023-02-22T00:00:39;264.37;;;43.40;;
8861;SDS011;4799;50.996;4.754;2023-02-22T00:05:50;231.33;;;43.03;;
8861;SDS011;4799;50.996;4.754;2023-02-22T00:08:19;222.60;;;44.90;;
8861;SDS011;4799;50.996;4.754;2023-02-22T00:10:48;176.90;;;42.10;;
8861;SDS011;4799;50.996;4.754;2023-02-22T00:13:17;146.37;;;40.57;;
8861;SDS011;4799;50.996;4.754;2023-02-22T00:15:43;165.53;;;39.07;;
8861;SDS011;4799;50.996;4.754;2023-02-22T00:18:13;288.37;;;46.77;;
8861;SDS011;4799;50.996;4.754;2023-02-22T00:20:41;176.27;;;42.93;;
8861;SDS011;4799;50.996;4.754;2023-02-22T00:23:08;118.77;;;37.63;;
8861;SDS011;4799;50.996;4.754;2023-02-22T00:25:38;178.77;;;39.67;;
8861;SDS011;4799;50.996;4.754;2023-02-22T00:28:04;167.27;;;40.33;;
8861;SDS011;4799;50.996;4.754;2023-02-22T00:30:30;107.30;;;36.13;;
8861;SDS011;4799;50.996;4.754;2023-02-22T00:32:57;139.07;;;38.40;;
8861;SDS011;4799;50.996;4.754;2023-02-22T00:35:24;139.73;;;37.70;;
8861;SDS011;4799;50.996;4.754;2023-02-22T00:37:54;207.90;;;43.67;;
8861;SDS011;4799;50.996;4.754;2023-02-22T00:40:24;147.80;;;38.47;;
8861;SDS011;4799;50.996;4.754;2023-02-22T00:42:51;99.17;;;36.43;;
8861;SDS011;4799;50.996;4.754;2023-02-22T00:45:20;243.60;;;45.87;;
8861;SDS011;4799;50.996;4.754;2023-02-22T00:47:47;120.77;;;35.30;;
8861;SDS011;4799;50.996;4.754;2023-02-22T00:50:14;328.00;;;45.73;;
8861;SDS011;4799;50.996;4.754;2023-02-22T00:52:41;101.33;;;35.00;;
8861;SDS011;4799;50.996;4.754;2023-02-22T00:55:08;300.70;;;44.53;;
8861;SDS011;4799;50.996;4.754;2023-02-22T00:57:39;171.47;;;36.53;;
8861;SDS011;4799;50.996;4.754;2023-02-22T01:00:05;316.83;;;45.87;;
8861;SDS011;4799;50.996;4.754;2023-02-22T01:02:39;249.17;;;44.77;;
8861;SDS011;4799;50.996;4.754;2023-02-22T01:05:07;144.63;;;39.00;;
8861;SDS011;4799;50.996;4.754;2023-02-22T01:07:36;209.63;;;44.13;;
8861;SDS011;4799;50.996;4.754;2023-02-22T01:10:03;235.53;;;43.30;;
8861;SDS011;4799;50.996;4.754;2023-02-22T01:12:30;219.30;;;46.43;;
8861;SDS011;4799;50.996;4.754;2023-02-22T01:14:56;266.23;;;46.43;;
8861;SDS011;4799;50.996;4.754;2023-02-22T01:17:25;188.50;;;42.23;;
8861;SDS011;4799;50.996;4.754;2023-02-22T01:19:52;179.07;;;41.77;;
8861;SDS011;4799;50.996;4.754;2023-02-22T01:22:18;83.80;;;36.27;;
8861;SDS011;4799;50.996;4.754;2023-02-22T01:24:46;245.60;;;47.90;;
8861;SDS011;4799;50.996;4.754;2023-02-22T01:27:15;256.93;;;46.67;;
8861;SDS011;4799;50.996;4.754;2023-02-22T01:29:42;179.03;;;43.03;;
8861;SDS011;4799;50.996;4.754;2023-02-22T01:32:08;186.47;;;42.67;;
8861;SDS011;4799;50.996;4.754;2023-02-22T01:34:36;138.17;;;39.60;;
8861;SDS011;4799;50.996;4.754;2023-02-22T01:37:03;258.80;;;46.00;;
8861;SDS011;4799;50.996;4.754;2023-02-22T01:39:30;235.90;;;44.10;;
8861;SDS011;4799;50.996;4.754;2023-02-22T01:41:56;147.07;;;38.40;;
8861;SDS011;4799;50.996;4.754;2023-02-22T01:44:33;180.30;;;40.77;;
8861;SDS011;4799;50.996;4.754;2023-02-22T01:47:01;197.53;;;41.30;;
8861;SDS011;4799;50.996;4.754;2023-02-22T01:49:42;185.37;;;39.97;;
8861;SDS011;4799;50.996;4.754;2023-02-22T01:52:14;196.07;;;41.90;;
8861;SDS011;4799;50.996;4.754;2023-02-22T01:54:45;228.00;;;45.50;;
8861;SDS011;4799;50.996;4.754;2023-02-22T01:57:24;172.13;;;43.70;;
8861;SDS011;4799;50.996;4.754;2023-02-22T01:59:56;166.53;;;41.73;;
8861;SDS011;4799;50.996;4.754;2023-02-22T02:02:34;220.33;;;44.70;;
8861;SDS011;4799;50.996;4.754;2023-02-22T02:05:05;174.17;;;38.70;;
8861;SDS011;4799;50.996;4.754;2023-02-22T02:07:33;198.40;;;43.17;;
8861;SDS011;4799;50.996;4.754;2023-02-22T02:10:03;254.90;;;48.60;;
8861;SDS011;4799;50.996;4.754;2023-02-22T02:12:34;76.20;;;34.23;;
8861;SDS011;4799;50.996;4.754;2023-02-22T02:17:41;161.10;;;41.87;;
8861;SDS011;4799;50.996;4.754;2023-02-22T02:23:30;132.80;;;37.23;;
8861;SDS011;4799;50.996;4.754;2023-02-22T02:34:35;156.33;;;35.87;;
8861;SDS011;4799;50.996;4.754;2023-02-22T02:37:10;174.57;;;37.23;;
8861;SDS011;4799;50.996;4.754;2023-02-22T02:42:22;176.97;;;37.57;;
8861;SDS011;4799;50.996;4.754;2023-02-22T02:44:54;119.43;;;33.83;;
8861;SDS011;4799;50.996;4.754;2023-02-22T02:47:31;181.33;;;38.47;;
8861;SDS011;4799;50.996;4.754;2023-02-22T02:50:09;143.80;;;33.13;;
8861;SDS011;4799;50.996;4.754;2023-02-22T02:52:40;153.43;;;35.80;;
8861;SDS011;4799;50.996;4.754;2023-02-22T02:55:08;163.20;;;35.93;;
8861;SDS011;4799;50.996;4.754;2023-02-22T02:57:35;134.60;;;34.83;;
8861;SDS011;4799;50.996;4.754;2023-02-22T03:00:03;158.37;;;35.77;;
8861;SDS011;4799;50.996;4.754;2023-02-22T03:08:18;141.87;;;34.70;;
8861;SDS011;4799;50.996;4.754;2023-02-22T03:16:42;123.67;;;35.70;;
8861;SDS011;4799;50.996;4.754;2023-02-22T03:19:12;84.90;;;32.30;;
8861;SDS011;4799;50.996;4.754;2023-02-22T03:21:55;62.03;;;29.43;;
8861;SDS011;4799;50.996;4.754;2023-02-22T03:29:49;68.93;;;26.83;;
8861;SDS011;4799;50.996;4.754;2023-02-22T03:32:22;71.57;;;26.07;;
8861;SDS011;4799;50.996;4.754;2023-02-22T03:35:03;86.03;;;28.53;;
8861;SDS011;4799;50.996;4.754;2023-02-22T03:37:33;69.73;;;26.50;;
8861;SDS011;4799;50.996;4.754;2023-02-22T03:40:04;74.57;;;27.87;;
8861;SDS011;4799;50.996;4.754;2023-02-22T03:42:52;69.53;;;27.93;;
8861;SDS011;4799;50.996;4.754;2023-02-22T03:45:23;85.37;;;29.93;;
8861;SDS011;4799;50.996;4.754;2023-02-22T03:47:52;69.73;;;27.37;;
8861;SDS011;4799;50.996;4.754;2023-02-22T03:50:31;54.57;;;27.13;;
8861;SDS011;4799;50.996;4.754;2023-02-22T03:52:59;56.60;;;26.60;;
8861;SDS011;4799;50.996;4.754;2023-02-22T03:55:26;55.90;;;26.87;;
8861;SDS011;4799;50.996;4.754;2023-02-22T03:57:57;61.80;;;28.50;;
8861;SDS011;4799;50.996;4.754;2023-02-22T04:00:26;49.80;;;27.70;;
8861;SDS011;4799;50.996;4.754;2023-02-22T04:02:54;72.87;;;28.47;;
8861;SDS011;4799;50.996;4.754;2023-02-22T04:05:20;62.63;;;27.10;;
8861;SDS011;4799;50.996;4.754;2023-02-22T04:07:48;53.97;;;26.40;;
8861;SDS011;4799;50.996;4.754;2023-02-22T04:10:17;60.73;;;27.87;;
8861;SDS011;4799;50.996;4.754;2023-02-22T04:12:43;53.00;;;26.23;;
8861;SDS011;4799;50.996;4.754;2023-02-22T04:15:15;51.33;;;26.80;;
8861;SDS011;4799;50.996;4.754;2023-02-22T04:17:46;53.87;;;27.27;;
8861;SDS011;4799;50.996;4.754;2023-02-22T04:20:12;46.50;;;24.67;;
8861;SDS011;4799;50.996;4.754;2023-02-22T04:22:39;45.37;;;26.30;;
8861;SDS011;4799;50.996;4.754;2023-02-22T04:25:05;49.10;;;23.97;;
8861;SDS011;4799;50.996;4.754;2023-02-22T04:27:32;59.47;;;25.47;;
8861;SDS011;4799;50.996;4.754;2023-02-22T04:29:58;62.60;;;27.47;;
8861;SDS011;4799;50.996;4.754;2023-02-22T04:32:24;45.77;;;24.80;;
8861;SDS011;4799;50.996;4.754;2023-02-22T04:34:50;57.70;;;27.63;;
8861;SDS011;4799;50.996;4.754;2023-02-22T04:37:16;48.03;;;26.77;;
8861;SDS011;4799;50.996;4.754;2023-02-22T04:39:41;45.33;;;26.23;;
8861;SDS011;4799;50.996;4.754;2023-02-22T04:42:07;38.23;;;24.93;;
8861;SDS011;4799;50.996;4.754;2023-02-22T04:44:33;42.73;;;24.50;;
8861;SDS011;4799;50.996;4.754;2023-02-22T04:46:58;48.70;;;26.27;;
8861;SDS011;4799;50.996;4.754;2023-02-22T04:49:24;45.77;;;25.50;;
8861;SDS011;4799;50.996;4.754;2023-02-22T04:51:50;43.37;;;23.50;;
8861;SDS011;4799;50.996;4.754;2023-02-22T04:54:15;47.33;;;24.50;;
8861;SDS011;4799;50.996;4.754;2023-02-22T04:56:42;32.90;;;23.07;;
8861;SDS011;4799;50.996;4.754;2023-02-22T04:59:09;34.90;;;22.33;;
8861;SDS011;4799;50.996;4.754;2023-02-22T05:01:35;39.70;;;23.27;;
8861;SDS011;4799;50.996;4.754;2023-02-22T05:04:05;34.03;;;22.97;;
8861;SDS011;4799;50.996;4.754;2023-02-22T05:06:31;35.80;;;24.30;;
8861;SDS011;4799;50.996;4.754;2023-02-22T05:08:57;32.27;;;23.27;;
8861;SDS011;4799;50.996;4.754;2023-02-22T05:11:23;31.70;;;22.70;;
8861;SDS011;4799;50.996;4.754;2023-02-22T05:13:49;29.23;;;22.90;;
8861;SDS011;4799;50.996;4.754;2023-02-22T05:16:15;26.87;;;22.03;;
8861;SDS011;4799;50.996;4.754;2023-02-22T05:18:41;24.87;;;21.40;;
8861;SDS011;4799;50.996;4.754;2023-02-22T05:21:07;27.17;;;22.27;;
8861;SDS011;4799;50.996;4.754;2023-02-22T05:23:33;29.70;;;22.67;;
8861;SDS011;4799;50.996;4.754;2023-02-22T05:25:59;27.80;;;22.20;;
8861;SDS011;4799;50.996;4.754;2023-02-22T05:28:25;28.97;;;23.17;;
8861;SDS011;4799;50.996;4.754;2023-02-22T05:30:51;29.83;;;23.17;;
8861;SDS011;4799;50.996;4.754;2023-02-22T05:33:17;30.23;;;22.37;;
8861;SDS011;4799;50.996;4.754;2023-02-22T05:35:43;26.80;;;22.33;;
8861;SDS011;4799;50.996;4.754;2023-02-22T05:38:13;28.57;;;22.20;;
8861;SDS011;4799;50.996;4.754;2023-02-22T05:40:40;24.90;;;21.97;;
8861;SDS011;4799;50.996;4.754;2023-02-22T05:43:06;23.97;;;20.73;;
8861;SDS011;4799;50.996;4.754;2023-02-22T05:45:32;25.47;;;21.77;;
8861;SDS011;4799;50.996;4.754;2023-02-22T05:47:58;26.03;;;21.60;;
8861;SDS011;4799;50.996;4.754;2023-02-22T05:50:24;24.90;;;21.70;;
8861;SDS011;4799;50.996;4.754;2023-02-22T05:52:51;24.90;;;21.30;;
8861;SDS011;4799;50.996;4.754;2023-02-22T05:55:18;24.07;;;21.43;;
8861;SDS011;4799;50.996;4.754;2023-02-22T05:57:45;26.40;;;21.53;;
8861;SDS011;4799;50.996;4.754;2023-02-22T06:00:15;23.80;;;20.60;;
8861;SDS011;4799;50.996;4.754;2023-02-22T06:02:43;22.10;;;19.37;;
8861;SDS011;4799;50.996;4.754;2023-02-22T06:05:09;27.03;;;22.73;;
8861;SDS011;4799;50.996;4.754;2023-02-22T06:07:35;24.90;;;20.93;;
8861;SDS011;4799;50.996;4.754;2023-02-22T06:10:01;26.37;;;22.60;;
8861;SDS011;4799;50.996;4.754;2023-02-22T06:12:27;22.67;;;19.23;;
8861;SDS011;4799;50.996;4.754;2023-02-22T06:14:52;23.67;;;20.30;;
8861;SDS011;4799;50.996;4.754;2023-02-22T06:17:18;21.43;;;19.13;;
8861;SDS011;4799;50.996;4.754;2023-02-22T06:19:44;23.40;;;20.83;;
8861;SDS011;4799;50.996;4.754;2023-02-22T06:22:17;24.23;;;21.13;;
8861;SDS011;4799;50.996;4.754;2023-02-22T06:24:43;23.50;;;21.00;;
8861;SDS011;4799;50.996;4.754;2023-02-22T06:27:09;24.37;;;21.37;;
8861;SDS011;4799;50.996;4.754;2023-02-22T06:29:35;23.40;;;20.20;;
8861;SDS011;4799;50.996;4.754;2023-02-22T06:32:01;27.20;;;21.70;;
8861;SDS011;4799;50.996;4.754;2023-02-22T06:34:27;22.57;;;20.17;;
8861;SDS011;4799;50.996;4.754;2023-02-22T06:36:53;21.37;;;19.07;;
8861;SDS011;4799;50.996;4.754;2023-02-22T06:39:19;26.63;;;22.87;;
8861;SDS011;4799;50.996;4.754;2023-02-22T06:41:45;22.37;;;19.33;;
8861;SDS011;4799;50.996;4.754;2023-02-22T06:44:12;26.23;;;23.17;;
8861;SDS011;4799;50.996;4.754;2023-02-22T06:46:39;23.57;;;21.07;;
8861;SDS011;4799;50.996;4.754;2023-02-22T06:49:12;21.20;;;19.10;;
8861;SDS011;4799;50.996;4.754;2023-02-22T06:51:37;21.67;;;19.17;;
8861;SDS011;4799;50.996;4.754;2023-02-22T06:54:03;21.67;;;19.47;;
8861;SDS011;4799;50.996;4.754;2023-02-22T06:56:30;21.30;;;19.20;;
8861;SDS011;4799;50.996;4.754;2023-02-22T06:58:55;20.27;;;18.23;;
8861;SDS011;4799;50.996;4.754;2023-02-22T07:01:21;19.20;;;17.20;;
8861;SDS011;4799;50.996;4.754;2023-02-22T07:03:47;20.90;;;18.77;;
8861;SDS011;4799;50.996;4.754;2023-02-22T07:06:14;20.23;;;18.23;;
8861;SDS011;4799;50.996;4.754;2023-02-22T07:08:39;19.23;;;17.33;;
8861;SDS011;4799;50.996;4.754;2023-02-22T07:11:05;19.57;;;17.57;;
8861;SDS011;4799;50.996;4.754;2023-02-22T07:13:31;19.77;;;17.87;;
8861;SDS011;4799;50.996;4.754;2023-02-22T07:15:56;21.77;;;19.67;;
8861;SDS011;4799;50.996;4.754;2023-02-22T07:18:22;20.50;;;18.50;;
8861;SDS011;4799;50.996;4.754;2023-02-22T07:20:48;19.47;;;17.47;;
8861;SDS011;4799;50.996;4.754;2023-02-22T07:23:14;18.80;;;16.97;;
8861;SDS011;4799;50.996;4.754;2023-02-22T07:25:41;18.97;;;17.17;;
8861;SDS011;4799;50.996;4.754;2023-02-22T07:28:07;17.97;;;16.17;;
8861;SDS011;4799;50.996;4.754;2023-02-22T07:30:35;18.73;;;17.03;;
8861;SDS011;4799;50.996;4.754;2023-02-22T07:33:03;18.37;;;16.57;;
8861;SDS011;4799;50.996;4.754;2023-02-22T07:35:35;18.73;;;16.87;;
8861;SDS011;4799;50.996;4.754;2023-02-22T07:38:03;19.60;;;17.70;;
8861;SDS011;4799;50.996;4.754;2023-02-22T07:40:30;19.00;;;17.20;;
8861;SDS011;4799;50.996;4.754;2023-02-22T07:45:45;19.00;;;17.13;;
8861;SDS011;4799;50.996;4.754;2023-02-22T07:48:14;17.63;;;15.97;;
8861;SDS011;4799;50.996;4.754;2023-02-22T07:50:40;16.63;;;14.97;;
8861;SDS011;4799;50.996;4.754;2023-02-22T07:53:09;16.43;;;14.90;;
8861;SDS011;4799;50.996;4.754;2023-02-22T07:55:42;17.83;;;16.13;;
8861;SDS011;4799;50.996;4.754;2023-02-22T07:58:08;17.13;;;15.53;;
8861;SDS011;4799;50.996;4.754;2023-02-22T08:00:39;16.93;;;15.33;;
8861;SDS011;4799;50.996;4.754;2023-02-22T08:03:09;16.97;;;15.37;;
8861;SDS011;4799;50.996;4.754;2023-02-22T08:05:38;16.70;;;15.20;;
8861;SDS011;4799;50.996;4.754;2023-02-22T08:08:05;16.93;;;15.10;;
8861;SDS011;4799;50.996;4.754;2023-02-22T08:10:32;16.73;;;15.20;;
8861;SDS011;4799;50.996;4.754;2023-02-22T08:12:59;17.37;;;15.63;;
8861;SDS011;4799;50.996;4.754;2023-02-22T08:17:53;16.17;;;14.67;;
8861;SDS011;4799;50.996;4.754;2023-02-22T08:20:20;17.23;;;15.63;;
8861;SDS011;4799;50.996;4.754;2023-02-22T08:22:47;15.23;;;13.73;;
8861;SDS011;4799;50.996;4.754;2023-02-22T08:25:13;15.87;;;14.37;;
8861;SDS011;4799;50.996;4.754;2023-02-22T08:27:41;15.03;;;13.60;;
8861;SDS011;4799;50.996;4.754;2023-02-22T08:30:09;15.60;;;13.93;;
8861;SDS011;4799;50.996;4.754;2023-02-22T08:32:38;14.90;;;13.53;;
8861;SDS011;4799;50.996;4.754;2023-02-22T08:35:04;15.10;;;13.70;;
8861;SDS011;4799;50.996;4.754;2023-02-22T08:37:30;15.10;;;13.63;;
8861;SDS011;4799;50.996;4.754;2023-02-22T08:39:56;14.27;;;12.87;;
8861;SDS011;4799;50.996;4.754;2023-02-22T08:42:22;14.23;;;12.73;;
8861;SDS011;4799;50.996;4.754;2023-02-22T08:44:48;13.63;;;12.40;;
8861;SDS011;4799;50.996;4.754;2023-02-22T08:47:13;11.97;;;10.80;;
8861;SDS011;4799;50.996;4.754;2023-02-22T08:49:39;13.07;;;11.87;;
8861;SDS011;4799;50.996;4.754;2023-02-22T08:52:07;14.13;;;12.67;;
8861;SDS011;4799;50.996;4.754;2023-02-22T08:54:36;12.53;;;11.43;;
8861;SDS011;4799;50.996;4.754;2023-02-22T08:57:01;13.47;;;12.07;;
8861;SDS011;4799;50.996;4.754;2023-02-22T08:59:27;13.23;;;12.00;;
8861;SDS011;4799;50.996;4.754;2023-02-22T09:01:53;13.30;;;12.10;;
8861;SDS011;4799;50.996;4.754;2023-02-22T09:04:19;14.23;;;12.83;;
8861;SDS011;4799;50.996;4.754;2023-02-22T09:06:45;13.13;;;11.80;;
8861;SDS011;4799;50.996;4.754;2023-02-22T09:09:16;12.90;;;11.70;;
8861;SDS011;4799;50.996;4.754;2023-02-22T09:11:45;12.43;;;11.23;;
8861;SDS011;4799;50.996;4.754;2023-02-22T09:14:11;12.20;;;10.43;;
8861;SDS011;4799;50.996;4.754;2023-02-22T09:16:38;12.27;;;11.13;;
8861;SDS011;4799;50.996;4.754;2023-02-22T09:19:04;11.47;;;10.23;;
8861;SDS011;4799;50.996;4.754;2023-02-22T09:21:30;12.03;;;10.90;;
8861;SDS011;4799;50.996;4.754;2023-02-22T09:23:56;11.30;;;10.13;;
8861;SDS011;4799;50.996;4.754;2023-02-22T09:26:22;11.50;;;10.30;;
8861;SDS011;4799;50.996;4.754;2023-02-22T09:28:48;11.50;;;10.40;;
8861;SDS011;4799;50.996;4.754;2023-02-22T09:31:14;11.33;;;10.33;;
8861;SDS011;4799;50.996;4.754;2023-02-22T09:33:41;12.93;;;11.47;;
8861;SDS011;4799;50.996;4.754;2023-02-22T09:36:06;14.10;;;10.43;;
8861;SDS011;4799;50.996;4.754;2023-02-22T09:38:32;13.57;;;11.10;;
8861;SDS011;4799;50.996;4.754;2023-02-22T09:41:10;13.80;;;10.70;;
8861;SDS011;4799;50.996;4.754;2023-02-22T09:43:50;12.43;;;10.70;;
8861;SDS011;4799;50.996;4.754;2023-02-22T09:46:29;12.30;;;11.07;;
8861;SDS011;4799;50.996;4.754;2023-02-22T09:51:51;11.03;;;9.93;;
8861;SDS011;4799;50.996;4.754;2023-02-22T09:54:28;11.50;;;10.30;;
8861;SDS011;4799;50.996;4.754;2023-02-22T09:57:18;13.97;;;10.53;;
8861;SDS011;4799;50.996;4.754;2023-02-22T10:00:00;11.83;;;10.63;;
8861;SDS011;4799;50.996;4.754;2023-02-22T10:02:37;11.23;;;10.07;;
8861;SDS011;4799;50.996;4.754;2023-02-22T10:05:35;12.13;;;10.87;;
8861;SDS011;4799;50.996;4.754;2023-02-22T10:08:04;12.97;;;10.60;;
8861;SDS011;4799;50.996;4.754;2023-02-22T10:10:46;13.03;;;10.50;;
8861;SDS011;4799;50.996;4.754;2023-02-22T10:15:58;12.03;;;10.40;;
8861;SDS011;4799;50.996;4.754;2023-02-22T10:21:11;13.40;;;11.63;;
8861;SDS011;4799;50.996;4.754;2023-02-22T10:26:36;13.73;;;12.33;;
8861;SDS011;4799;50.996;4.754;2023-02-22T10:29:09;15.27;;;12.93;;
8861;SDS011;4799;50.996;4.754;2023-02-22T10:31:47;15.10;;;13.40;;
8861;SDS011;4799;50.996;4.754;2023-02-22T10:34:21;13.87;;;12.47;;
8861;SDS011;4799;50.996;4.754;2023-02-22T10:36:50;15.07;;;13.10;;
8861;SDS011;4799;50.996;4.754;2023-02-22T10:39:29;14.00;;;12.00;;
8861;SDS011;4799;50.996;4.754;2023-02-22T10:42:00;14.77;;;13.23;;
8861;SDS011;4799;50.996;4.754;2023-02-22T10:44:34;15.33;;;13.70;;
8861;SDS011;4799;50.996;4.754;2023-02-22T10:47:02;16.60;;;14.50;;
8861;SDS011;4799;50.996;4.754;2023-02-22T10:49:35;17.70;;;14.13;;
8861;SDS011;4799;50.996;4.754;2023-02-22T10:52:10;15.17;;;13.47;;
8861;SDS011;4799;50.996;4.754;2023-02-22T10:54:41;14.67;;;13.17;;
8861;SDS011;4799;50.996;4.754;2023-02-22T10:57:12;14.27;;;12.77;;
8861;SDS011;4799;50.996;4.754;2023-02-22T10:59:39;14.97;;;12.13;;
8861;SDS011;4799;50.996;4.754;2023-02-22T11:02:17;13.40;;;11.80;;
8861;SDS011;4799;50.996;4.754;2023-02-22T11:04:44;15.67;;;12.77;;
8861;SDS011;4799;50.996;4.754;2023-02-22T11:07:17;13.40;;;12.00;;
8861;SDS011;4799;50.996;4.754;2023-02-22T11:09:48;14.60;;;12.70;;
8861;SDS011;4799;50.996;4.754;2023-02-22T11:12:20;14.37;;;11.83;;
8861;SDS011;4799;50.996;4.754;2023-02-22T11:17:41;13.33;;;11.77;;
8861;SDS011;4799;50.996;4.754;2023-02-22T11:20:22;15.43;;;12.60;;
8861;SDS011;4799;50.996;4.754;2023-02-22T11:22:59;13.33;;;11.93;;
8861;SDS011;4799;50.996;4.754;2023-02-22T11:25:29;14.47;;;12.50;;
8861;SDS011;4799;50.996;4.754;2023-02-22T11:30:55;13.60;;;12.17;;
8861;SDS011;4799;50.996;4.754;2023-02-22T11:33:23;14.13;;;12.53;;
8861;SDS011;4799;50.996;4.754;2023-02-22T11:38:36;14.43;;;13.00;;
8861;SDS011;4799;50.996;4.754;2023-02-22T11:41:20;13.43;;;11.90;;
8861;SDS011;4799;50.996;4.754;2023-02-22T11:43:51;16.03;;;13.20;;
8861;SDS011;4799;50.996;4.754;2023-02-22T11:48:55;14.30;;;11.93;;
8861;SDS011;4799;50.996;4.754;2023-02-22T11:56:39;14.93;;;13.43;;
8861;SDS011;4799;50.996;4.754;2023-02-22T11:59:14;14.97;;;13.37;;
8861;SDS011;4799;50.996;4.754;2023-02-22T12:08:19;16.73;;;14.33;;
8861;SDS011;4799;50.996;4.754;2023-02-22T12:13:44;15.77;;;14.20;;
8861;SDS011;4799;50.996;4.754;2023-02-22T12:19:02;16.00;;;14.30;;
8861;SDS011;4799;50.996;4.754;2023-02-22T12:21:53;16.73;;;13.83;;
8861;SDS011;4799;50.996;4.754;2023-02-22T12:24:26;16.63;;;14.43;;
8861;SDS011;4799;50.996;4.754;2023-02-22T12:27:08;16.03;;;14.20;;
8861;SDS011;4799;50.996;4.754;2023-02-22T12:34:56;15.33;;;13.83;;
8861;SDS011;4799;50.996;4.754;2023-02-22T12:40:15;15.60;;;14.03;;
8861;SDS011;4799;50.996;4.754;2023-02-22T12:43:54;14.73;;;13.23;;
8861;SDS011;4799;50.996;4.754;2023-02-22T12:54:27;17.10;;;15.40;;
8861;SDS011;4799;50.996;4.754;2023-02-22T13:03:01;18.43;;;16.63;;
8861;SDS011;4799;50.996;4.754;2023-02-22T13:05:38;18.50;;;16.63;;
8861;SDS011;4799;50.996;4.754;2023-02-22T13:16:31;19.37;;;17.13;;
8861;SDS011;4799;50.996;4.754;2023-02-22T13:21:56;20.10;;;18.00;;
8861;SDS011;4799;50.996;4.754;2023-02-22T13:27:19;20.03;;;18.13;;
8861;SDS011;4799;50.996;4.754;2023-02-22T13:29:51;20.27;;;18.10;;
8861;SDS011;4799;50.996;4.754;2023-02-22T13:35:00;20.73;;;18.63;;
8861;SDS011;4799;50.996;4.754;2023-02-22T13:51:16;23.90;;;21.40;;
8861;SDS011;4799;50.996;4.754;2023-02-22T13:56:18;25.83;;;23.23;;
8861;SDS011;4799;50.996;4.754;2023-02-22T13:58:46;24.87;;;22.20;;
8861;SDS011;4799;50.996;4.754;2023-02-22T14:06:44;25.83;;;23.23;;
8861;SDS011;4799;50.996;4.754;2023-02-22T14:17:34;26.07;;;21.93;;
8861;SDS011;4799;50.996;4.754;2023-02-22T14:22:41;24.93;;;22.43;;
8861;SDS011;4799;50.996;4.754;2023-02-22T14:28:07;28.50;;;25.73;;
8861;SDS011;4799;50.996;4.754;2023-02-22T14:31:04;29.07;;;26.27;;
8861;SDS011;4799;50.996;4.754;2023-02-22T14:36:29;28.97;;;26.27;;
8861;SDS011;4799;50.996;4.754;2023-02-22T14:38:58;29.13;;;26.33;;
8861;SDS011;4799;50.996;4.754;2023-02-22T14:41:37;29.90;;;27.07;;
8861;SDS011;4799;50.996;4.754;2023-02-22T14:44:05;29.60;;;26.87;;
8861;SDS011;4799;50.996;4.754;2023-02-22T14:46:37;29.53;;;26.63;;
8861;SDS011;4799;50.996;4.754;2023-02-22T14:49:07;30.87;;;27.97;;
8861;SDS011;4799;50.996;4.754;2023-02-22T14:51:43;30.50;;;27.60;;
8861;SDS011;4799;50.996;4.754;2023-02-22T14:54:25;30.60;;;27.50;;
8861;SDS011;4799;50.996;4.754;2023-02-22T14:59:58;31.10;;;28.20;;
8861;SDS011;4799;50.996;4.754;2023-02-22T15:02:54;29.17;;;26.20;;
8861;SDS011;4799;50.996;4.754;2023-02-22T15:05:23;30.37;;;27.50;;
8861;SDS011;4799;50.996;4.754;2023-02-22T15:08:01;31.03;;;28.07;;
8861;SDS011;4799;50.996;4.754;2023-02-22T15:10:29;30.57;;;27.40;;
8861;SDS011;4799;50.996;4.754;2023-02-22T15:15:54;32.00;;;28.83;;
8861;SDS011;4799;50.996;4.754;2023-02-22T15:20:58;31.60;;;28.60;;
8861;SDS011;4799;50.996;4.754;2023-02-22T15:23:29;31.47;;;28.37;;
8861;SDS011;4799;50.996;4.754;2023-02-22T15:26:15;31.80;;;28.70;;
8861;SDS011;4799;50.996;4.754;2023-02-22T15:28:47;31.60;;;28.60;;
8861;SDS011;4799;50.996;4.754;2023-02-22T15:34:07;33.03;;;29.80;;
8861;SDS011;4799;50.996;4.754;2023-02-22T15:36:48;31.80;;;28.53;;
8861;SDS011;4799;50.996;4.754;2023-02-22T15:42:00;33.17;;;29.93;;
8861;SDS011;4799;50.996;4.754;2023-02-22T15:44:26;34.90;;;31.43;;
8861;SDS011;4799;50.996;4.754;2023-02-22T15:46:52;33.53;;;30.17;;
8861;SDS011;4799;50.996;4.754;2023-02-22T15:49:21;34.30;;;31.00;;
8861;SDS011;4799;50.996;4.754;2023-02-22T15:51:50;34.27;;;30.90;;
8861;SDS011;4799;50.996;4.754;2023-02-22T15:54:29;35.10;;;31.73;;
8861;SDS011;4799;50.996;4.754;2023-02-22T15:57:01;33.10;;;29.70;;
8861;SDS011;4799;50.996;4.754;2023-02-22T15:59:27;33.87;;;30.70;;
8861;SDS011;4799;50.996;4.754;2023-02-22T16:01:57;34.13;;;30.93;;
8861;SDS011;4799;50.996;4.754;2023-02-22T16:04:28;35.23;;;31.83;;
8861;SDS011;4799;50.996;4.754;2023-02-22T16:07:05;37.30;;;33.67;;
8861;SDS011;4799;50.996;4.754;2023-02-22T16:09:44;35.97;;;32.30;;
8861;SDS011;4799;50.996;4.754;2023-02-22T16:14:46;36.67;;;33.00;;
8861;SDS011;4799;50.996;4.754;2023-02-22T16:22:38;40.40;;;36.17;;
8861;SDS011;4799;50.996;4.754;2023-02-22T16:25:23;40.07;;;35.93;;
8861;SDS011;4799;50.996;4.754;2023-02-22T16:27:54;39.87;;;35.87;;
8861;SDS011;4799;50.996;4.754;2023-02-22T16:30:29;42.77;;;38.50;;
8861;SDS011;4799;50.996;4.754;2023-02-22T16:33:02;41.23;;;37.03;;
8861;SDS011;4799;50.996;4.754;2023-02-22T16:35:30;40.10;;;36.03;;
8861;SDS011;4799;50.996;4.754;2023-02-22T16:38:00;39.83;;;35.83;;
8861;SDS011;4799;50.996;4.754;2023-02-22T16:40:32;39.60;;;35.70;;
8861;SDS011;4799;50.996;4.754;2023-02-22T16:43:21;38.93;;;35.13;;
8861;SDS011;4799;50.996;4.754;2023-02-22T16:45:58;39.13;;;35.17;;
8861;SDS011;4799;50.996;4.754;2023-02-22T16:48:29;40.93;;;36.70;;
8861;SDS011;4799;50.996;4.754;2023-02-22T16:51:01;40.40;;;36.30;;
8861;SDS011;4799;50.996;4.754;2023-02-22T16:53:44;42.10;;;37.80;;
8861;SDS011;4799;50.996;4.754;2023-02-22T16:56:13;42.00;;;37.73;;
8861;SDS011;4799;50.996;4.754;2023-02-22T16:58:40;40.83;;;36.57;;
8861;SDS011;4799;50.996;4.754;2023-02-22T17:01:07;42.87;;;38.27;;
8861;SDS011;4799;50.996;4.754;2023-02-22T17:03:33;43.07;;;38.57;;
8861;SDS011;4799;50.996;4.754;2023-02-22T17:05:59;41.27;;;37.03;;
8861;SDS011;4799;50.996;4.754;2023-02-22T17:08:25;42.27;;;37.40;;
8861;SDS011;4799;50.996;4.754;2023-02-22T17:10:51;41.47;;;37.07;;
8861;SDS011;4799;50.996;4.754;2023-02-22T17:13:21;41.43;;;37.00;;
8861;SDS011;4799;50.996;4.754;2023-02-22T17:15:48;41.20;;;36.80;;
8861;SDS011;4799;50.996;4.754;2023-02-22T17:18:15;42.37;;;37.77;;
8861;SDS011;4799;50.996;4.754;2023-02-22T17:20:46;42.17;;;37.70;;
8861;SDS011;4799;50.996;4.754;2023-02-22T17:23:13;41.70;;;37.37;;
8861;SDS011;4799;50.996;4.754;2023-02-22T17:25:41;41.27;;;36.80;;
8861;SDS011;4799;50.996;4.754;2023-02-22T17:28:13;42.30;;;37.70;;
8861;SDS011;4799;50.996;4.754;2023-02-22T17:30:39;41.30;;;36.90;;
8861;SDS011;4799;50.996;4.754;2023-02-22T17:33:06;38.87;;;34.83;;
8861;SDS011;4799;50.996;4.754;2023-02-22T17:35:35;41.00;;;36.03;;
8861;SDS011;4799;50.996;4.754;2023-02-22T17:38:04;39.37;;;35.10;;
8861;SDS011;4799;50.996;4.754;2023-02-22T17:40:34;41.60;;;36.80;;
8861;SDS011;4799;50.996;4.754;2023-02-22T17:43:02;39.93;;;35.13;;
8861;SDS011;4799;50.996;4.754;2023-02-22T17:45:29;42.17;;;36.77;;
8861;SDS011;4799;50.996;4.754;2023-02-22T17:47:55;39.33;;;35.07;;
8861;SDS011;4799;50.996;4.754;2023-02-22T17:50:23;38.37;;;34.23;;
8861;SDS011;4799;50.996;4.754;2023-02-22T17:52:50;37.73;;;33.63;;
8861;SDS011;4799;50.996;4.754;2023-02-22T17:55:16;37.37;;;33.43;;
8861;SDS011;4799;50.996;4.754;2023-02-22T17:57:46;37.97;;;33.43;;
8861;SDS011;4799;50.996;4.754;2023-02-22T18:00:16;36.90;;;32.90;;
8861;SDS011;4799;50.996;4.754;2023-02-22T18:02:57;36.03;;;31.57;;